sensor_id;sensor_type;location;lat;lon;timestamp;pressure;altitude;pressure_sealevel;temperature;humidity
39075;BME280;24826;52.070;20.970;2023-04-27T00:01:14;62084.72;;;-147.04;41.46
39075;BME280;24826;52.070;20.970;2023-04-27T00:03:59;62106.59;;;-147.04;41.56
39075;BME280;24826;52.070;20.970;2023-04-27T00:06:43;62235.88;;;-147.04;41.59
39075;BME280;24826;52.070;20.970;2023-04-27T00:09:28;62112.56;;;-147.04;41.53
39075;BME280;24826;52.070;20.970;2023-04-27T00:12:12;62092.69;;;-147.04;41.41
39075;BME280;24826;52.070;20.970;2023-04-27T00:14:57;62056.88;;;-147.04;41.47
39075;BME280;24826;52.070;20.970;2023-04-27T00:17:41;62074.78;;;-147.04;41.42
39075;BME280;24826;52.070;20.970;2023-04-27T00:20:26;62064.84;;;-147.04;41.49
39075;BME280;24826;52.070;20.970;2023-04-27T00:23:11;62092.69;;;-147.04;41.35
39075;BME280;24826;52.070;20.970;2023-04-27T00:25:56;62092.69;;;-147.04;41.36
39075;BME280;24826;52.070;20.970;2023-04-27T00:28:40;62112.56;;;-147.04;41.36
39075;BME280;24826;52.070;20.970;2023-04-27T00:31:25;62152.34;;;-147.04;41.31
39075;BME280;24826;52.070;20.970;2023-04-27T00:34:09;62076.78;;;-147.04;41.39
39075;BME280;24826;52.070;20.970;2023-04-27T00:36:53;62090.69;;;-147.04;41.39
39075;BME280;24826;52.070;20.970;2023-04-27T00:39:37;62060.84;;;-147.04;41.34
39075;BME280;24826;52.070;20.970;2023-04-27T00:42:21;62090.69;;;-147.04;41.51
39075;BME280;24826;52.070;20.970;2023-04-27T00:45:08;62064.84;;;-147.04;41.31
39075;BME280;24826;52.070;20.970;2023-04-27T00:47:54;62084.72;;;-147.04;41.29
39075;BME280;24826;52.070;20.970;2023-04-27T00:50:38;62130.47;;;-147.04;41.16
39075;BME280;24826;52.070;20.970;2023-04-27T00:53:23;62056.88;;;-147.04;41.18
39075;BME280;24826;52.070;20.970;2023-04-27T00:56:08;62128.47;;;-147.04;41.28
39075;BME280;24826;52.070;20.970;2023-04-27T00:58:52;62056.88;;;-147.04;41.10
39075;BME280;24826;52.070;20.970;2023-04-27T01:01:36;62064.84;;;-147.04;41.19
39075;BME280;24826;52.070;20.970;2023-04-27T01:04:21;62072.78;;;-147.04;41.20
39075;BME280;24826;52.070;20.970;2023-04-27T01:07:06;62072.78;;;-147.04;41.18
39075;BME280;24826;52.070;20.970;2023-04-27T01:09:50;62094.66;;;-147.04;41.15
39075;BME280;24826;52.070;20.970;2023-04-27T01:12:35;62078.75;;;-147.04;41.23
39075;BME280;24826;52.070;20.970;2023-04-27T01:15:19;62048.94;;;-147.04;41.13
39075;BME280;24826;52.070;20.970;2023-04-27T01:18:04;62088.69;;;-147.04;41.09
39075;BME280;24826;52.070;20.970;2023-04-27T01:20:48;62076.78;;;-147.04;41.18
39075;BME280;24826;52.070;20.970;2023-04-27T01:23:33;62092.69;;;-147.04;41.18
39075;BME280;24826;52.070;20.970;2023-04-27T01:26:17;62064.84;;;-147.04;41.01
39075;BME280;24826;52.070;20.970;2023-04-27T01:29:01;62078.75;;;-147.04;41.18
39075;BME280;24826;52.070;20.970;2023-04-27T01:31:46;62106.59;;;-147.04;41.07
39075;BME280;24826;52.070;20.970;2023-04-27T01:34:30;62088.69;;;-147.04;40.96
39075;BME280;24826;52.070;20.970;2023-04-27T01:37:15;62068.81;;;-147.04;40.86
39075;BME280;24826;52.070;20.970;2023-04-27T01:39:59;62084.72;;;-147.04;41.10
39075;BME280;24826;52.070;20.970;2023-04-27T01:42:43;62042.97;;;-147.04;41.04
39075;BME280;24826;52.070;20.970;2023-04-27T01:45:28;62060.84;;;-147.04;40.94
39075;BME280;24826;52.070;20.970;2023-04-27T01:48:12;62110.56;;;-147.04;40.96
39075;BME280;24826;52.070;20.970;2023-04-27T01:50:56;62056.88;;;-147.04;40.99
39075;BME280;24826;52.070;20.970;2023-04-27T01:53:41;62062.84;;;-147.04;40.89
39075;BME280;24826;52.070;20.970;2023-04-27T01:56:26;62050.91;;;-147.04;40.94
39075;BME280;24826;52.070;20.970;2023-04-27T01:59:10;62100.63;;;-147.04;41.02
39075;BME280;24826;52.070;20.970;2023-04-27T02:01:54;62072.78;;;-147.04;40.90
39075;BME280;24826;52.070;20.970;2023-04-27T02:04:39;62076.78;;;-147.04;40.92
39075;BME280;24826;52.070;20.970;2023-04-27T02:07:25;62040.97;;;-147.04;40.99
39075;BME280;24826;52.070;20.970;2023-04-27T02:10:10;62070.81;;;-147.04;40.87
39075;BME280;24826;52.070;20.970;2023-04-27T02:12:54;62076.78;;;-147.04;40.97
39075;BME280;24826;52.070;20.970;2023-04-27T02:15:39;62068.81;;;-147.04;41.08
39075;BME280;24826;52.070;20.970;2023-04-27T02:18:24;62074.78;;;-147.04;40.95
39075;BME280;24826;52.070;20.970;2023-04-27T02:21:09;62025.06;;;-147.04;40.89
39075;BME280;24826;52.070;20.970;2023-04-27T02:23:53;62068.81;;;-147.04;40.98
39075;BME280;24826;52.070;20.970;2023-04-27T02:26:38;62084.72;;;-147.04;40.91
39075;BME280;24826;52.070;20.970;2023-04-27T02:29:22;62058.88;;;-147.04;40.88
39075;BME280;24826;52.070;20.970;2023-04-27T02:32:07;62090.69;;;-147.04;40.99
39075;BME280;24826;52.070;20.970;2023-04-27T02:34:51;62064.84;;;-147.04;40.87
39075;BME280;24826;52.070;20.970;2023-04-27T02:37:35;62070.81;;;-147.04;40.81
39075;BME280;24826;52.070;20.970;2023-04-27T02:40:20;62062.84;;;-147.04;40.82
39075;BME280;24826;52.070;20.970;2023-04-27T02:43:05;62058.88;;;-147.04;40.90
39075;BME280;24826;52.070;20.970;2023-04-27T02:45:49;62050.91;;;-147.04;41.06
39075;BME280;24826;52.070;20.970;2023-04-27T02:48:33;62072.78;;;-147.04;40.96
39075;BME280;24826;52.070;20.970;2023-04-27T02:51:17;62037.00;;;-147.04;40.89
39075;BME280;24826;52.070;20.970;2023-04-27T02:54:02;62037.00;;;-147.04;41.00
39075;BME280;24826;52.070;20.970;2023-04-27T02:56:46;62084.72;;;-147.04;40.91
39075;BME280;24826;52.070;20.970;2023-04-27T02:59:31;62054.91;;;-147.04;40.99
39075;BME280;24826;52.070;20.970;2023-04-27T03:02:15;62072.78;;;-147.04;40.99
39075;BME280;24826;52.070;20.970;2023-04-27T03:05:00;62048.94;;;-147.04;40.76
39075;BME280;24826;52.070;20.970;2023-04-27T03:07:44;62040.97;;;-147.04;40.83
39075;BME280;24826;52.070;20.970;2023-04-27T03:10:29;62084.72;;;-147.04;40.74
39075;BME280;24826;52.070;20.970;2023-04-27T03:13:13;62072.78;;;-147.04;40.80
39075;BME280;24826;52.070;20.970;2023-04-27T03:15:58;62050.91;;;-147.04;40.78
39075;BME280;24826;52.070;20.970;2023-04-27T03:18:42;62078.75;;;-147.04;40.79
39075;BME280;24826;52.070;20.970;2023-04-27T03:21:27;62076.78;;;-147.04;40.69
39075;BME280;24826;52.070;20.970;2023-04-27T03:24:11;62017.09;;;-147.04;40.67
39075;BME280;24826;52.070;20.970;2023-04-27T03:26:55;62066.81;;;-147.04;40.75
39075;BME280;24826;52.070;20.970;2023-04-27T03:29:39;62072.78;;;-147.04;40.66
39075;BME280;24826;52.070;20.970;2023-04-27T03:32:24;62029.03;;;-147.04;40.70
39075;BME280;24826;52.070;20.970;2023-04-27T03:35:09;62068.81;;;-147.04;40.80
39075;BME280;24826;52.070;20.970;2023-04-27T03:37:53;62070.81;;;-147.04;40.67
39075;BME280;24826;52.070;20.970;2023-04-27T03:40:38;62070.81;;;-147.04;40.72
39075;BME280;24826;52.070;20.970;2023-04-27T03:43:23;62056.88;;;-147.04;40.70
39075;BME280;24826;52.070;20.970;2023-04-27T03:46:07;62062.84;;;-147.04;40.82
39075;BME280;24826;52.070;20.970;2023-04-27T03:48:52;62060.84;;;-147.04;40.58
39075;BME280;24826;52.070;20.970;2023-04-27T03:51:36;62040.97;;;-147.04;40.59
39075;BME280;24826;52.070;20.970;2023-04-27T03:54:25;62048.94;;;-147.04;40.59
39075;BME280;24826;52.070;20.970;2023-04-27T03:57:09;62088.69;;;-147.04;40.51
39075;BME280;24826;52.070;20.970;2023-04-27T03:59:56;62060.84;;;-147.04;40.47
39075;BME280;24826;52.070;20.970;2023-04-27T04:02:40;62040.97;;;-147.04;40.49
39075;BME280;24826;52.070;20.970;2023-04-27T04:05:25;62060.84;;;-147.04;40.55
39075;BME280;24826;52.070;20.970;2023-04-27T04:08:09;62082.75;;;-147.04;40.62
39075;BME280;24826;52.070;20.970;2023-04-27T04:10:55;62042.97;;;-147.04;40.55
39075;BME280;24826;52.070;20.970;2023-04-27T04:13:39;62052.91;;;-147.04;40.59
39075;BME280;24826;52.070;20.970;2023-04-27T04:16:24;62025.06;;;-147.04;40.65
39075;BME280;24826;52.070;20.970;2023-04-27T04:19:09;62058.88;;;-147.04;40.92
39075;BME280;24826;52.070;20.970;2023-04-27T04:21:53;62090.69;;;-147.04;41.00
39075;BME280;24826;52.070;20.970;2023-04-27T04:24:39;62086.72;;;-147.04;41.04
39075;BME280;24826;52.070;20.970;2023-04-27T04:27:24;62072.78;;;-147.04;41.22
39075;BME280;24826;52.070;20.970;2023-04-27T04:30:09;62084.72;;;-147.04;41.12
39075;BME280;24826;52.070;20.970;2023-04-27T04:32:54;62084.72;;;-147.04;41.08
39075;BME280;24826;52.070;20.970;2023-04-27T04:35:39;62060.84;;;-147.04;41.18
39075;BME280;24826;52.070;20.970;2023-04-27T04:38:27;62088.69;;;-147.04;41.39
39075;BME280;24826;52.070;20.970;2023-04-27T04:41:12;62076.78;;;-147.04;41.26
39075;BME280;24826;52.070;20.970;2023-04-27T04:43:56;62076.78;;;-147.04;41.49
39075;BME280;24826;52.070;20.970;2023-04-27T04:46:41;62092.69;;;-147.04;41.46
39075;BME280;24826;52.070;20.970;2023-04-27T04:49:26;62098.66;;;-147.04;41.60
39075;BME280;24826;52.070;20.970;2023-04-27T04:52:10;62102.63;;;-147.04;41.20
39075;BME280;24826;52.070;20.970;2023-04-27T04:54:55;62054.91;;;-147.04;41.40
39075;BME280;24826;52.070;20.970;2023-04-27T04:57:39;62082.75;;;-147.04;41.50
39075;BME280;24826;52.070;20.970;2023-04-27T05:00:24;62072.78;;;-147.04;41.56
39075;BME280;24826;52.070;20.970;2023-04-27T05:03:08;62096.66;;;-147.04;41.60
39075;BME280;24826;52.070;20.970;2023-04-27T05:05:53;62080.75;;;-147.04;41.53
39075;BME280;24826;52.070;20.970;2023-04-27T05:08:37;62096.66;;;-147.04;41.50
39075;BME280;24826;52.070;20.970;2023-04-27T05:11:21;62100.63;;;-147.04;41.55
39075;BME280;24826;52.070;20.970;2023-04-27T05:14:06;62086.72;;;-147.04;41.71
39075;BME280;24826;52.070;20.970;2023-04-27T05:16:50;62088.69;;;-147.04;41.55
39075;BME280;24826;52.070;20.970;2023-04-27T05:19:34;62100.63;;;-147.04;41.52
39075;BME280;24826;52.070;20.970;2023-04-27T05:22:19;62108.59;;;-147.04;41.48
39075;BME280;24826;52.070;20.970;2023-04-27T05:25:04;62074.78;;;-147.04;41.46
39075;BME280;24826;52.070;20.970;2023-04-27T05:27:50;62070.81;;;-147.04;41.68
39075;BME280;24826;52.070;20.970;2023-04-27T05:30:35;62088.69;;;-147.04;41.44
39075;BME280;24826;52.070;20.970;2023-04-27T05:33:20;62104.63;;;-147.04;41.53
39075;BME280;24826;52.070;20.970;2023-04-27T05:36:05;62094.66;;;-147.04;41.68
39075;BME280;24826;52.070;20.970;2023-04-27T05:38:49;62106.59;;;-147.04;41.50
39075;BME280;24826;52.070;20.970;2023-04-27T05:41:34;62072.78;;;-147.04;41.46
39075;BME280;24826;52.070;20.970;2023-04-27T05:44:19;62062.84;;;-147.04;41.44
39075;BME280;24826;52.070;20.970;2023-04-27T05:47:03;62100.63;;;-147.04;41.47
39075;BME280;24826;52.070;20.970;2023-04-27T05:49:51;62112.56;;;-147.04;41.44
39075;BME280;24826;52.070;20.970;2023-04-27T05:52:36;62076.78;;;-147.04;41.45
39075;BME280;24826;52.070;20.970;2023-04-27T05:55:22;62076.78;;;-147.04;41.44
39075;BME280;24826;52.070;20.970;2023-04-27T05:58:06;62096.66;;;-147.04;41.42
39075;BME280;24826;52.070;20.970;2023-04-27T06:00:52;62118.53;;;-147.04;41.42
39075;BME280;24826;52.070;20.970;2023-04-27T06:03:36;62100.63;;;-147.04;41.44
39075;BME280;24826;52.070;20.970;2023-04-27T06:06:21;62094.66;;;-147.04;41.25
39075;BME280;24826;52.070;20.970;2023-04-27T06:09:05;62068.81;;;-147.04;41.35
39075;BME280;24826;52.070;20.970;2023-04-27T06:11:50;62124.50;;;-147.04;41.42
39075;BME280;24826;52.070;20.970;2023-04-27T06:14:35;62166.25;;;-147.04;41.39
39075;BME280;24826;52.070;20.970;2023-04-27T06:17:20;62092.69;;;-147.04;41.50
39075;BME280;24826;52.070;20.970;2023-04-27T06:20:05;62092.69;;;-147.04;41.46
39075;BME280;24826;52.070;20.970;2023-04-27T06:22:50;62100.63;;;-147.04;41.43
39075;BME280;24826;52.070;20.970;2023-04-27T06:25:34;62094.66;;;-147.04;41.42
39075;BME280;24826;52.070;20.970;2023-04-27T06:28:20;62102.63;;;-147.04;41.43
39075;BME280;24826;52.070;20.970;2023-04-27T06:31:05;62124.50;;;-147.04;41.46
39075;BME280;24826;52.070;20.970;2023-04-27T06:33:50;62104.63;;;-147.04;41.50
39075;BME280;24826;52.070;20.970;2023-04-27T06:36:34;62092.69;;;-147.04;41.58
39075;BME280;24826;52.070;20.970;2023-04-27T06:39:19;62128.47;;;-147.04;41.49
39075;BME280;24826;52.070;20.970;2023-04-27T06:42:04;62112.56;;;-147.04;41.54
39075;BME280;24826;52.070;20.970;2023-04-27T06:44:52;62124.50;;;-147.04;41.56
39075;BME280;24826;52.070;20.970;2023-04-27T06:47:37;62136.44;;;-147.04;41.46
39075;BME280;24826;52.070;20.970;2023-04-27T06:50:21;62108.59;;;-147.04;41.59
39075;BME280;24826;52.070;20.970;2023-04-27T06:53:05;62128.47;;;-147.04;41.50
39075;BME280;24826;52.070;20.970;2023-04-27T06:55:50;62130.47;;;-147.04;41.59
39075;BME280;24826;52.070;20.970;2023-04-27T06:58:34;62150.34;;;-147.04;41.52
39075;BME280;24826;52.070;20.970;2023-04-27T07:01:19;62138.41;;;-147.04;41.51
39075;BME280;24826;52.070;20.970;2023-04-27T07:04:04;62134.44;;;-147.04;41.53
39075;BME280;24826;52.070;20.970;2023-04-27T07:06:48;62130.47;;;-147.04;41.70
39075;BME280;24826;52.070;20.970;2023-04-27T07:09:33;62158.31;;;-147.04;41.42
39075;BME280;24826;52.070;20.970;2023-04-27T07:12:17;62104.63;;;-147.04;41.50
39075;BME280;24826;52.070;20.970;2023-04-27T07:15:01;62156.31;;;-147.04;41.59
39075;BME280;24826;52.070;20.970;2023-04-27T07:17:47;62142.41;;;-147.04;41.55
39075;BME280;24826;52.070;20.970;2023-04-27T07:20:32;62164.28;;;-147.04;41.57
39075;BME280;24826;52.070;20.970;2023-04-27T07:23:16;62178.19;;;-147.04;41.67
39075;BME280;24826;52.070;20.970;2023-04-27T07:26:01;62215.97;;;-147.04;41.52
39075;BME280;24826;52.070;20.970;2023-04-27T07:28:45;62144.38;;;-147.04;41.44
39075;BME280;24826;52.070;20.970;2023-04-27T07:31:30;62148.38;;;-147.04;41.52
39075;BME280;24826;52.070;20.970;2023-04-27T07:34:16;62148.38;;;-147.04;41.50
39075;BME280;24826;52.070;20.970;2023-04-27T07:37:00;62164.28;;;-147.04;41.50
39075;BME280;24826;52.070;20.970;2023-04-27T07:39:45;62136.44;;;-147.04;41.47
39075;BME280;24826;52.070;20.970;2023-04-27T07:42:29;62152.34;;;-147.04;41.47
39075;BME280;24826;52.070;20.970;2023-04-27T07:45:13;62206.03;;;-147.04;41.41
39075;BME280;24826;52.070;20.970;2023-04-27T07:48:00;62192.13;;;-147.04;41.36
39075;BME280;24826;52.070;20.970;2023-04-27T07:50:45;62174.22;;;-147.04;41.41
39075;BME280;24826;52.070;20.970;2023-04-27T07:53:29;62202.06;;;-147.04;41.35
39075;BME280;24826;52.070;20.970;2023-04-27T07:56:14;62166.25;;;-147.04;41.51
39075;BME280;24826;52.070;20.970;2023-04-27T07:58:58;62212.00;;;-147.04;41.36
39075;BME280;24826;52.070;20.970;2023-04-27T08:01:43;62158.31;;;-147.04;41.40
39075;BME280;24826;52.070;20.970;2023-04-27T08:04:28;62174.22;;;-147.04;41.47
39075;BME280;24826;52.070;20.970;2023-04-27T08:07:13;62194.09;;;-147.04;41.37
39075;BME280;24826;52.070;20.970;2023-04-27T08:09:57;62176.22;;;-147.04;41.36
39075;BME280;24826;52.070;20.970;2023-04-27T08:12:42;62154.34;;;-147.04;41.39
39075;BME280;24826;52.070;20.970;2023-04-27T08:15:27;62176.22;;;-147.04;41.31
39075;BME280;24826;52.070;20.970;2023-04-27T08:18:11;62144.38;;;-147.04;41.38
39075;BME280;24826;52.070;20.970;2023-04-27T08:20:56;62156.31;;;-147.04;41.44
39075;BME280;24826;52.070;20.970;2023-04-27T08:23:41;62204.06;;;-147.04;41.48
39075;BME280;24826;52.070;20.970;2023-04-27T08:26:25;62198.09;;;-147.04;41.47
39075;BME280;24826;52.070;20.970;2023-04-27T08:29:10;62162.28;;;-147.04;41.47
39075;BME280;24826;52.070;20.970;2023-04-27T08:31:58;62196.09;;;-147.04;41.53
39075;BME280;24826;52.070;20.970;2023-04-27T08:34:43;62317.41;;;-147.04;41.57
39075;BME280;24826;52.070;20.970;2023-04-27T08:37:29;62217.97;;;-147.04;41.55
39075;BME280;24826;52.070;20.970;2023-04-27T08:40:13;62188.13;;;-147.04;41.34
39075;BME280;24826;52.070;20.970;2023-04-27T08:42:58;62223.94;;;-147.04;41.23
39075;BME280;24826;52.070;20.970;2023-04-27T08:45:47;62184.16;;;-147.04;41.28
39075;BME280;24826;52.070;20.970;2023-04-27T08:48:33;62194.09;;;-147.04;41.24
39075;BME280;24826;52.070;20.970;2023-04-27T08:51:18;62210.03;;;-147.04;41.23
39075;BME280;24826;52.070;20.970;2023-04-27T08:54:03;62210.03;;;-147.04;41.26
39075;BME280;24826;52.070;20.970;2023-04-27T08:56:48;62160.31;;;-147.04;41.37
39075;BME280;24826;52.070;20.970;2023-04-27T08:59:32;62164.28;;;-147.04;41.17
39075;BME280;24826;52.070;20.970;2023-04-27T09:02:19;62166.25;;;-147.04;41.23
39075;BME280;24826;52.070;20.970;2023-04-27T09:05:04;62138.41;;;-147.04;41.21
39075;BME280;24826;52.070;20.970;2023-04-27T09:08:03;62196.09;;;-147.04;41.28
39075;BME280;24826;52.070;20.970;2023-04-27T09:10:51;62204.06;;;-147.04;41.15
39075;BME280;24826;52.070;20.970;2023-04-27T09:13:39;62194.09;;;-147.04;41.31
39075;BME280;24826;52.070;20.970;2023-04-27T09:16:25;62196.09;;;-147.04;41.28
39075;BME280;24826;52.070;20.970;2023-04-27T09:19:22;62154.34;;;-147.04;41.24
39075;BME280;24826;52.070;20.970;2023-04-27T09:22:09;62166.25;;;-147.04;41.22
39075;BME280;24826;52.070;20.970;2023-04-27T09:24:54;62204.06;;;-147.04;41.18
39075;BME280;24826;52.070;20.970;2023-04-27T09:27:42;62176.22;;;-147.04;41.26
39075;BME280;24826;52.070;20.970;2023-04-27T09:30:28;62168.25;;;-147.04;41.22
39075;BME280;24826;52.070;20.970;2023-04-27T09:33:12;62188.13;;;-147.04;41.12
39075;BME280;24826;52.070;20.970;2023-04-27T09:35:58;62128.47;;;-147.04;41.20
39075;BME280;24826;52.070;20.970;2023-04-27T09:38:43;62140.41;;;-147.04;41.22
39075;BME280;24826;52.070;20.970;2023-04-27T09:41:28;62164.28;;;-147.04;41.13
39075;BME280;24826;52.070;20.970;2023-04-27T09:44:13;62168.25;;;-147.04;41.18
39075;BME280;24826;52.070;20.970;2023-04-27T09:46:58;62168.25;;;-147.04;41.12
39075;BME280;24826;52.070;20.970;2023-04-27T09:49:43;62144.38;;;-147.04;41.13
39075;BME280;24826;52.070;20.970;2023-04-27T09:52:27;62172.22;;;-147.04;41.16
39075;BME280;24826;52.070;20.970;2023-04-27T09:55:17;62152.34;;;-147.04;41.06
39075;BME280;24826;52.070;20.970;2023-04-27T10:01:29;62174.22;;;-147.04;40.99
39075;BME280;24826;52.070;20.970;2023-04-27T10:04:31;62158.31;;;-147.04;41.01
39075;BME280;24826;52.070;20.970;2023-04-27T10:07:19;62160.31;;;-147.04;41.18
39075;BME280;24826;52.070;20.970;2023-04-27T10:10:04;62150.34;;;-147.04;41.07
39075;BME280;24826;52.070;20.970;2023-04-27T10:13:00;62188.13;;;-147.04;41.15
39075;BME280;24826;52.070;20.970;2023-04-27T10:15:45;62158.31;;;-147.04;41.07
39075;BME280;24826;52.070;20.970;2023-04-27T10:18:29;62168.25;;;-147.04;41.11
39075;BME280;24826;52.070;20.970;2023-04-27T10:21:14;62142.41;;;-147.04;41.07
39075;BME280;24826;52.070;20.970;2023-04-27T10:24:06;62096.66;;;-147.04;41.10
39075;BME280;24826;52.070;20.970;2023-04-27T10:26:52;62132.47;;;-147.04;41.04
39075;BME280;24826;52.070;20.970;2023-04-27T10:29:42;62162.28;;;-147.04;41.04
39075;BME280;24826;52.070;20.970;2023-04-27T10:32:27;62166.25;;;-147.04;41.11
39075;BME280;24826;52.070;20.970;2023-04-27T10:35:12;62184.16;;;-147.04;41.12
39075;BME280;24826;52.070;20.970;2023-04-27T10:38:07;62132.47;;;-147.04;41.03
39075;BME280;24826;52.070;20.970;2023-04-27T10:40:57;62128.47;;;-147.04;41.05
39075;BME280;24826;52.070;20.970;2023-04-27T10:43:41;62142.41;;;-147.04;41.01
39075;BME280;24826;52.070;20.970;2023-04-27T10:46:26;62146.38;;;-147.04;40.91
39075;BME280;24826;52.070;20.970;2023-04-27T10:49:10;62116.53;;;-147.04;40.96
39075;BME280;24826;52.070;20.970;2023-04-27T10:51:57;62104.63;;;-147.04;40.94
39075;BME280;24826;52.070;20.970;2023-04-27T10:54:45;62142.41;;;-147.04;40.99
39075;BME280;24826;52.070;20.970;2023-04-27T10:57:29;62108.59;;;-147.04;40.80
39075;BME280;24826;52.070;20.970;2023-04-27T11:00:48;62108.59;;;-147.04;40.90
39075;BME280;24826;52.070;20.970;2023-04-27T11:03:27;62116.53;;;-147.04;40.91
39075;BME280;24826;52.070;20.970;2023-04-27T11:06:12;62172.22;;;-147.04;40.83
39075;BME280;24826;52.070;20.970;2023-04-27T11:08:58;62144.38;;;-147.04;40.88
39075;BME280;24826;52.070;20.970;2023-04-27T11:11:43;62148.38;;;-147.04;40.72
39075;BME280;24826;52.070;20.970;2023-04-27T11:14:29;62132.47;;;-147.04;40.86
39075;BME280;24826;52.070;20.970;2023-04-27T11:17:13;62148.38;;;-147.04;40.75
39075;BME280;24826;52.070;20.970;2023-04-27T11:19:57;62160.31;;;-147.04;40.84
39075;BME280;24826;52.070;20.970;2023-04-27T11:22:44;62114.56;;;-147.04;40.78
39075;BME280;24826;52.070;20.970;2023-04-27T11:25:29;62166.25;;;-147.04;40.78
39075;BME280;24826;52.070;20.970;2023-04-27T11:28:17;62108.59;;;-147.04;40.71
39075;BME280;24826;52.070;20.970;2023-04-27T11:31:02;62128.47;;;-147.04;40.72
39075;BME280;24826;52.070;20.970;2023-04-27T11:33:49;62136.44;;;-147.04;40.82
39075;BME280;24826;52.070;20.970;2023-04-27T11:36:35;62160.31;;;-147.04;40.64
39075;BME280;24826;52.070;20.970;2023-04-27T11:39:19;62132.47;;;-147.04;40.78
39075;BME280;24826;52.070;20.970;2023-04-27T11:42:18;62142.41;;;-147.04;40.67
39075;BME280;24826;52.070;20.970;2023-04-27T11:45:04;62140.41;;;-147.04;40.75
39075;BME280;24826;52.070;20.970;2023-04-27T11:47:50;62136.44;;;-147.04;40.78
39075;BME280;24826;52.070;20.970;2023-04-27T11:50:34;62134.44;;;-147.04;40.76
39075;BME280;24826;52.070;20.970;2023-04-27T11:53:29;62156.31;;;-147.04;40.75
39075;BME280;24826;52.070;20.970;2023-04-27T11:56:15;62130.47;;;-147.04;40.33
39075;BME280;24826;52.070;20.970;2023-04-27T11:58:59;62136.44;;;-147.04;40.75
39075;BME280;24826;52.070;20.970;2023-04-27T12:01:44;62120.53;;;-147.04;40.78
39075;BME280;24826;52.070;20.970;2023-04-27T12:04:29;62118.53;;;-147.04;40.72
39075;BME280;24826;52.070;20.970;2023-04-27T12:07:14;62100.63;;;-147.04;40.78
39075;BME280;24826;52.070;20.970;2023-04-27T12:09:58;62124.50;;;-147.04;40.75
39075;BME280;24826;52.070;20.970;2023-04-27T12:12:43;62154.34;;;-147.04;40.76
39075;BME280;24826;52.070;20.970;2023-04-27T12:15:27;62148.38;;;-147.04;40.78
39075;BME280;24826;52.070;20.970;2023-04-27T12:18:12;62108.59;;;-147.04;40.61
39075;BME280;24826;52.070;20.970;2023-04-27T12:20:57;62092.69;;;-147.04;40.72
39075;BME280;24826;52.070;20.970;2023-04-27T12:23:42;62108.59;;;-147.04;40.80
39075;BME280;24826;52.070;20.970;2023-04-27T12:26:26;62116.53;;;-147.04;40.66
39075;BME280;24826;52.070;20.970;2023-04-27T12:29:12;62108.59;;;-147.04;40.64
39075;BME280;24826;52.070;20.970;2023-04-27T12:31:58;62144.38;;;-147.04;40.64
39075;BME280;24826;52.070;20.970;2023-04-27T12:34:42;62118.53;;;-147.04;40.44
39075;BME280;24826;52.070;20.970;2023-04-27T12:37:27;62140.41;;;-147.04;40.58
39075;BME280;24826;52.070;20.970;2023-04-27T12:40:11;62164.28;;;-147.04;40.62
39075;BME280;24826;52.070;20.970;2023-04-27T12:42:55;62100.63;;;-147.04;40.74
39075;BME280;24826;52.070;20.970;2023-04-27T12:45:40;62168.25;;;-147.04;40.63
39075;BME280;24826;52.070;20.970;2023-04-27T12:48:24;62192.13;;;-147.04;40.58
39075;BME280;24826;52.070;20.970;2023-04-27T12:51:09;62136.44;;;-147.04;40.54
39075;BME280;24826;52.070;20.970;2023-04-27T12:53:54;62144.38;;;-147.04;40.53
39075;BME280;24826;52.070;20.970;2023-04-27T12:56:38;62086.72;;;-147.04;40.59
39075;BME280;24826;52.070;20.970;2023-04-27T12:59:23;62106.59;;;-147.04;40.55
39075;BME280;24826;52.070;20.970;2023-04-27T13:02:08;62130.47;;;-147.04;40.62
39075;BME280;24826;52.070;20.970;2023-04-27T13:04:53;62122.50;;;-147.04;40.66
39075;BME280;24826;52.070;20.970;2023-04-27T13:07:38;62128.47;;;-147.04;40.52
39075;BME280;24826;52.070;20.970;2023-04-27T13:10:23;62136.44;;;-147.04;40.54
39075;BME280;24826;52.070;20.970;2023-04-27T13:13:08;62118.53;;;-147.04;40.51
39075;BME280;24826;52.070;20.970;2023-04-27T13:15:52;62152.34;;;-147.04;40.76
39075;BME280;24826;52.070;20.970;2023-04-27T13:18:38;62166.25;;;-147.04;40.51
39075;BME280;24826;52.070;20.970;2023-04-27T13:21:23;62126.50;;;-147.04;40.71
39075;BME280;24826;52.070;20.970;2023-04-27T13:24:08;62104.63;;;-147.04;40.48
39075;BME280;24826;52.070;20.970;2023-04-27T13:26:52;62102.63;;;-147.04;40.58
39075;BME280;24826;52.070;20.970;2023-04-27T13:29:36;62120.53;;;-147.04;40.51
39075;BME280;24826;52.070;20.970;2023-04-27T13:32:21;62092.69;;;-147.04;40.45
39075;BME280;24826;52.070;20.970;2023-04-27T13:35:06;62124.50;;;-147.04;40.44
39075;BME280;24826;52.070;20.970;2023-04-27T13:37:50;62106.59;;;-147.04;40.42
39075;BME280;24826;52.070;20.970;2023-04-27T13:40:37;62134.44;;;-147.04;40.43
39075;BME280;24826;52.070;20.970;2023-04-27T13:43:21;62126.50;;;-147.04;40.39
39075;BME280;24826;52.070;20.970;2023-04-27T13:46:05;62078.75;;;-147.04;40.29
39075;BME280;24826;52.070;20.970;2023-04-27T13:48:50;62122.50;;;-147.04;40.35
39075;BME280;24826;52.070;20.970;2023-04-27T13:51:34;62044.94;;;-147.04;40.49
39075;BME280;24826;52.070;20.970;2023-04-27T13:54:19;62104.63;;;-147.04;40.49
39075;BME280;24826;52.070;20.970;2023-04-27T13:57:04;62108.59;;;-147.04;40.39
39075;BME280;24826;52.070;20.970;2023-04-27T13:59:48;62112.56;;;-147.04;40.36
39075;BME280;24826;52.070;20.970;2023-04-27T14:02:33;62058.88;;;-147.04;40.40
39075;BME280;24826;52.070;20.970;2023-04-27T14:05:17;62104.63;;;-147.04;40.09